createdAt,value
2023-02-23T00:01:07.778Z,10.15
2023-02-23T00:03:36.668Z,13.13
2023-02-23T00:06:09.256Z,17.67
2023-02-23T00:08:39.462Z,12.88
2023-02-23T00:11:11.532Z,16.23
2023-02-23T00:13:41.750Z,14.35
2023-02-23T00:16:14.283Z,13.07
2023-02-23T00:18:48.733Z,14.57
2023-02-23T00:21:20.541Z,11.45
2023-02-23T00:23:54.355Z,13.07
2023-02-23T00:26:25.164Z,12.90
2023-02-23T00:28:56.325Z,11.75
2023-02-23T00:31:27.534Z,9.48
2023-02-23T00:33:57.514Z,10.32
2023-02-23T00:36:30.346Z,8.77
2023-02-23T00:39:02.640Z,12.23
2023-02-23T00:41:31.834Z,8.52
2023-02-23T00:44:02.350Z,11.60
2023-02-23T00:46:32.186Z,8.55
2023-02-23T00:49:01.289Z,7.90
2023-02-23T00:51:32.827Z,7.78
2023-02-23T00:54:02.684Z,10.85
2023-02-23T00:56:32.288Z,7.55
2023-02-23T00:59:01.044Z,8.88
2023-02-23T01:01:30.697Z,7.88
2023-02-23T01:03:59.410Z,8.70
2023-02-23T01:06:28.360Z,11.05
2023-02-23T01:09:01.630Z,8.20
2023-02-23T01:11:31.272Z,9.60
2023-02-23T01:14:01.504Z,11.38
2023-02-23T01:16:32.132Z,14.15
2023-02-23T01:19:03.679Z,8.25
2023-02-23T01:21:34.953Z,12.18
2023-02-23T01:24:06.828Z,8.27
2023-02-23T01:26:39.283Z,9.18
2023-02-23T01:29:10.860Z,7.93
2023-02-23T01:31:40.946Z,10.80
2023-02-23T01:34:10.481Z,8.20
2023-02-23T01:36:41.909Z,11.30
2023-02-23T01:39:15.413Z,10.65
2023-02-23T01:41:43.992Z,8.98
2023-02-23T01:44:45.427Z,8.98
2023-02-23T01:47:17.496Z,10.48
2023-02-23T01:49:46.392Z,8.80
2023-02-23T01:52:19.188Z,16.23
2023-02-23T01:54:53.614Z,11.48
2023-02-23T01:57:27.346Z,10.43
2023-02-23T01:59:57.336Z,9.00
2023-02-23T02:02:35.319Z,9.10
2023-02-23T02:05:06.683Z,11.85
2023-02-23T02:07:36.950Z,12.85
2023-02-23T02:10:34.664Z,12.07
2023-02-23T02:13:06.215Z,13.98
2023-02-23T02:15:38.904Z,10.15
2023-02-23T02:18:18.945Z,17.35
2023-02-23T02:21:12.872Z,9.05
2023-02-23T02:24:11.286Z,13.05
2023-02-23T02:26:50.581Z,9.85
2023-02-23T02:29:45.282Z,10.82
2023-02-23T02:35:38.214Z,10.65
2023-02-23T02:38:27.507Z,11.60
2023-02-23T02:41:04.073Z,10.35
2023-02-23T02:43:41.771Z,8.43
2023-02-23T02:46:17.638Z,9.30
2023-02-23T02:48:52.537Z,9.63
2023-02-23T02:51:29.078Z,8.82
2023-02-23T02:54:07.352Z,11.82
2023-02-23T02:56:40.723Z,11.68
2023-02-23T02:59:30.615Z,11.05
2023-02-23T03:02:16.835Z,14.05
2023-02-23T03:05:02.847Z,12.82
2023-02-23T03:07:55.302Z,11.15
2023-02-23T03:10:51.981Z,13.65
2023-02-23T03:13:47.069Z,12.32
2023-02-23T03:16:45.547Z,11.63
2023-02-23T03:19:36.968Z,12.02
2023-02-23T03:22:31.040Z,12.32
2023-02-23T03:25:24.015Z,15.05
2023-02-23T03:28:16.955Z,11.23
2023-02-23T03:31:10.895Z,14.57
2023-02-23T03:34:03.679Z,12.73
2023-02-23T03:36:56.106Z,11.82
2023-02-23T03:39:48.455Z,15.27
2023-02-23T03:42:40.317Z,9.32
2023-02-23T03:45:33.438Z,12.93
2023-02-23T03:48:22.902Z,14.45
2023-02-23T03:51:13.322Z,13.10
2023-02-23T03:54:04.716Z,12.65
2023-02-23T03:56:54.280Z,12.90
2023-02-23T03:59:44.594Z,11.90
2023-02-23T04:02:35.594Z,13.48
2023-02-23T04:05:26.696Z,12.50
2023-02-23T04:08:13.796Z,14.63
2023-02-23T04:11:09.149Z,12.13
2023-02-23T04:13:39.353Z,13.55
2023-02-23T04:16:08.605Z,11.50
2023-02-23T04:18:40.674Z,15.05
2023-02-23T04:21:11.066Z,13.65
2023-02-23T04:23:41.764Z,13.65
2023-02-23T04:26:11.063Z,15.93
2023-02-23T04:28:39.882Z,11.02
2023-02-23T04:31:08.368Z,16.27
2023-02-23T04:33:39.204Z,12.80
2023-02-23T04:36:09.210Z,14.35
2023-02-23T04:38:37.981Z,14.30
2023-02-23T04:41:07.010Z,12.40
2023-02-23T04:43:36.015Z,17.70
2023-02-23T04:46:04.750Z,14.80
2023-02-23T04:48:33.133Z,14.90
2023-02-23T04:51:02.967Z,15.88
2023-02-23T04:53:31.770Z,15.68
2023-02-23T04:56:00.696Z,17.25
2023-02-23T04:58:29.650Z,15.43
2023-02-23T05:01:06.389Z,14.15
2023-02-23T05:03:36.040Z,14.02
2023-02-23T05:06:06.485Z,16.30
2023-02-23T05:08:35.877Z,14.73
2023-02-23T05:11:04.389Z,16.13
2023-02-23T05:13:34.115Z,12.88
2023-02-23T05:16:03.549Z,17.27
2023-02-23T05:18:34.069Z,15.55
2023-02-23T05:21:10.212Z,18.55
2023-02-23T05:23:41.235Z,16.17
2023-02-23T05:26:13.122Z,18.13
2023-02-23T05:28:44.071Z,16.63
2023-02-23T05:31:13.886Z,16.73
2023-02-23T05:33:44.300Z,19.27
2023-02-23T05:36:17.834Z,19.67
2023-02-23T05:38:47.433Z,17.73
2023-02-23T05:41:18.262Z,17.55
2023-02-23T05:43:47.303Z,16.05
2023-02-23T05:46:19.786Z,18.15
2023-02-23T05:48:49.560Z,19.85
2023-02-23T05:51:21.106Z,18.45
2023-02-23T05:53:49.586Z,19.40
2023-02-23T05:56:21.553Z,17.80
2023-02-23T05:58:50.800Z,19.98
2023-02-23T06:01:20.800Z,17.73
2023-02-23T06:03:50.207Z,22.25
2023-02-23T06:06:20.820Z,17.83
2023-02-23T06:08:50.175Z,27.30
2023-02-23T06:11:19.006Z,22.58
2023-02-23T06:13:48.354Z,19.15
2023-02-23T06:16:17.214Z,14.80
2023-02-23T06:18:46.297Z,13.70
2023-02-23T06:21:14.804Z,14.38
2023-02-23T06:23:45.862Z,16.73
2023-02-23T06:26:14.272Z,19.70
2023-02-23T06:28:43.239Z,13.52
2023-02-23T06:31:13.353Z,18.67
2023-02-23T06:33:41.719Z,19.77
2023-02-23T06:36:10.831Z,19.88
2023-02-23T06:38:39.585Z,21.10
2023-02-23T06:41:13.641Z,26.55
2023-02-23T06:46:10.233Z,19.50
2023-02-23T06:48:39.079Z,18.05
2023-02-23T06:51:08.621Z,11.82
2023-02-23T06:53:37.210Z,16.20
2023-02-23T06:56:07.074Z,18.98
2023-02-23T06:58:40.261Z,18.55
2023-02-23T07:01:08.760Z,23.70
2023-02-23T07:03:37.391Z,18.98
2023-02-23T07:06:06.455Z,19.10
2023-02-23T07:08:35.900Z,24.48
2023-02-23T07:11:08.455Z,29.63
2023-02-23T07:13:38.547Z,21.95
2023-02-23T07:16:07.718Z,25.55
2023-02-23T07:18:36.670Z,29.45
2023-02-23T07:21:05.708Z,23.73
2023-02-23T07:23:34.091Z,15.95
2023-02-23T07:26:03.457Z,18.50
2023-02-23T07:28:32.543Z,20.55
2023-02-23T07:31:02.889Z,18.50
2023-02-23T07:33:32.784Z,21.27
2023-02-23T07:36:01.615Z,23.77
2023-02-23T07:38:30.647Z,22.63
2023-02-23T07:40:59.667Z,19.67
2023-02-23T07:43:28.528Z,19.85
2023-02-23T07:46:03.088Z,22.75
2023-02-23T07:48:33.640Z,24.77
2023-02-23T07:51:04.282Z,18.92
2023-02-23T07:53:33.324Z,20.45
2023-02-23T07:56:03.719Z,20.58
2023-02-23T07:58:33.169Z,24.80
2023-02-23T08:01:06.088Z,27.52
2023-02-23T08:03:34.842Z,22.30
2023-02-23T08:06:04.297Z,26.27
2023-02-23T08:08:34.328Z,26.92
2023-02-23T08:11:03.258Z,24.90
2023-02-23T08:13:32.629Z,25.05
2023-02-23T08:16:03.164Z,26.85
2023-02-23T08:18:31.693Z,22.83
2023-02-23T08:21:01.558Z,23.95
2023-02-23T08:23:31.956Z,22.65
2023-02-23T08:26:00.967Z,23.25
2023-02-23T08:28:29.785Z,23.60
2023-02-23T08:30:59.567Z,28.77
2023-02-23T08:33:31.893Z,22.98
2023-02-23T08:36:03.056Z,23.92
2023-02-23T08:38:32.311Z,23.13
2023-02-23T08:41:02.768Z,21.10
2023-02-23T08:43:31.444Z,25.05
2023-02-23T08:46:00.025Z,25.33
2023-02-23T08:48:29.901Z,30.27
2023-02-23T08:50:59.287Z,27.27
2023-02-23T08:53:29.877Z,21.23
2023-02-23T08:55:59.500Z,26.45
2023-02-23T08:58:31.607Z,23.73
2023-02-23T09:01:00.246Z,26.40
2023-02-23T09:03:31.671Z,24.30
2023-02-23T09:06:07.693Z,22.15
2023-02-23T09:08:36.309Z,27.75
2023-02-23T09:11:05.567Z,24.65
2023-02-23T09:13:34.639Z,24.63
2023-02-23T09:16:04.242Z,26.83
2023-02-23T09:18:34.195Z,23.90
2023-02-23T09:21:07.097Z,23.30
2023-02-23T09:23:36.210Z,28.77
2023-02-23T09:26:06.228Z,24.00
2023-02-23T09:28:35.323Z,26.58
2023-02-23T09:31:10.042Z,22.08
2023-02-23T09:33:40.861Z,24.42
2023-02-23T09:36:13.444Z,27.02
2023-02-23T09:38:42.034Z,29.13
2023-02-23T09:41:32.144Z,25.25
2023-02-23T09:44:05.753Z,22.10
2023-02-23T09:46:43.447Z,22.95
2023-02-23T09:49:19.260Z,24.35
2023-02-23T09:51:51.853Z,32.85
2023-02-23T09:54:24.531Z,22.98
2023-02-23T09:56:56.585Z,26.40
2023-02-23T09:59:26.616Z,26.15
2023-02-23T10:02:02.485Z,27.80
2023-02-23T10:04:38.403Z,28.40
2023-02-23T10:07:14.362Z,27.20
2023-02-23T10:10:09.710Z,28.83
2023-02-23T10:12:46.883Z,23.67
2023-02-23T10:15:25.393Z,30.17
2023-02-23T10:18:04.573Z,30.88
2023-02-23T10:20:45.380Z,27.10
2023-02-23T10:23:18.668Z,26.45
2023-02-23T10:25:51.342Z,25.95
2023-02-23T10:28:22.813Z,26.65
2023-02-23T10:30:52.654Z,24.45
2023-02-23T10:33:26.103Z,23.95
2023-02-23T10:36:12.967Z,23.23
2023-02-23T10:38:42.273Z,25.27
2023-02-23T10:41:15.820Z,29.98
2023-02-23T10:43:45.591Z,22.05
2023-02-23T10:46:22.810Z,25.88
2023-02-23T10:48:56.030Z,25.77
2023-02-23T10:51:30.045Z,24.83
2023-02-23T10:56:46.445Z,25.10
2023-02-23T10:59:22.442Z,20.92
2023-02-23T11:02:01.839Z,23.83
2023-02-23T11:04:33.029Z,22.10
2023-02-23T11:07:18.257Z,24.88
2023-02-23T11:09:48.368Z,24.80
2023-02-23T11:12:23.052Z,29.13
2023-02-23T11:14:58.586Z,21.70
2023-02-23T11:17:31.661Z,24.25
2023-02-23T11:20:03.198Z,24.48
2023-02-23T11:22:38.937Z,22.98
2023-02-23T11:25:20.370Z,23.27
2023-02-23T11:27:54.368Z,22.20
2023-02-23T11:32:56.150Z,21.65
2023-02-23T11:35:32.145Z,23.58
2023-02-23T11:38:17.560Z,23.52
2023-02-23T11:41:01.594Z,24.05
2023-02-23T11:43:30.212Z,22.27
2023-02-23T11:46:01.263Z,21.95
2023-02-23T11:48:35.342Z,22.98
2023-02-23T11:53:40.234Z,24.30
2023-02-23T11:56:12.872Z,29.30
2023-02-23T11:58:46.200Z,23.88
2023-02-23T12:01:17.445Z,24.80
2023-02-23T12:03:52.391Z,29.73
2023-02-23T12:06:33.283Z,25.45
2023-02-23T12:09:13.576Z,19.45
2023-02-23T12:11:48.617Z,22.50
2023-02-23T12:14:28.280Z,21.05
2023-02-23T12:17:04.243Z,29.42
2023-02-23T12:19:38.722Z,22.13
2023-02-23T12:22:14.011Z,20.70
2023-02-23T12:24:50.879Z,19.10
2023-02-23T12:27:24.486Z,17.88
2023-02-23T12:30:12.002Z,25.92
2023-02-23T12:32:48.500Z,24.08
2023-02-23T12:35:23.695Z,19.90
2023-02-23T12:37:57.615Z,18.85
2023-02-23T12:40:29.945Z,18.75
2023-02-23T12:43:06.056Z,20.65
2023-02-23T12:45:42.625Z,19.10
2023-02-23T12:48:21.045Z,18.77
2023-02-23T12:50:54.620Z,17.23
2023-02-23T12:53:27.716Z,20.33
2023-02-23T12:56:16.698Z,18.40
2023-02-23T12:58:52.495Z,12.63
2023-02-23T13:01:27.707Z,11.57
2023-02-23T13:04:23.870Z,15.80
2023-02-23T13:07:03.223Z,16.83
2023-02-23T13:09:45.783Z,12.77
2023-02-23T13:12:32.453Z,11.90
2023-02-23T13:15:13.389Z,16.20
2023-02-23T13:17:48.471Z,12.20
2023-02-23T13:20:25.600Z,13.55
2023-02-23T13:22:59.871Z,15.63
2023-02-23T13:25:38.470Z,13.80
2023-02-23T13:28:15.820Z,13.35
2023-02-23T13:30:48.114Z,11.50
2023-02-23T13:33:38.418Z,14.43
2023-02-23T13:36:14.751Z,14.50
2023-02-23T13:38:53.977Z,11.48
2023-02-23T13:41:36.740Z,12.25
2023-02-23T13:44:17.259Z,13.30
2023-02-23T13:46:51.330Z,22.17
2023-02-23T13:52:01.946Z,16.23
2023-02-23T13:54:34.718Z,15.75
2023-02-23T13:57:05.805Z,12.40
2023-02-23T13:59:43.957Z,16.98
2023-02-23T14:02:29.018Z,15.45
2023-02-23T14:04:59.671Z,13.43
2023-02-23T14:07:31.306Z,17.70
2023-02-23T14:10:06.770Z,17.65
2023-02-23T14:12:39.878Z,15.63
2023-02-23T14:15:43.811Z,14.93
2023-02-23T14:18:35.184Z,17.20
2023-02-23T14:21:15.083Z,16.73
2023-02-23T14:23:55.698Z,13.38
2023-02-23T14:26:43.357Z,13.65
2023-02-23T14:29:27.970Z,12.70
2023-02-23T14:32:05.256Z,11.00
2023-02-23T14:34:50.108Z,11.43
2023-02-23T14:37:22.206Z,15.00
2023-02-23T14:39:52.430Z,11.48
2023-02-23T14:42:25.507Z,12.18
2023-02-23T14:44:55.726Z,12.63
2023-02-23T14:47:29.350Z,11.57
2023-02-23T14:50:00.895Z,14.80
2023-02-23T14:52:34.892Z,19.33
2023-02-23T14:55:24.136Z,14.45
2023-02-23T14:57:54.616Z,10.88
2023-02-23T15:00:26.745Z,19.25
2023-02-23T15:02:59.871Z,16.80
2023-02-23T15:05:31.475Z,14.30
2023-02-23T15:08:02.898Z,11.90
2023-02-23T15:10:35.962Z,15.45
2023-02-23T15:13:12.597Z,14.45
2023-02-23T15:15:46.518Z,13.73
2023-02-23T15:18:23.415Z,10.48
2023-02-23T15:20:52.960Z,15.52
2023-02-23T15:23:22.289Z,14.27
2023-02-23T15:25:51.404Z,14.32
2023-02-23T15:28:25.957Z,16.80
2023-02-23T15:30:56.549Z,13.43
2023-02-23T15:33:29.270Z,15.50
2023-02-23T15:36:09.847Z,18.40
2023-02-23T15:38:46.647Z,14.13
2023-02-23T15:41:23.394Z,14.27
2023-02-23T15:43:52.595Z,13.25
2023-02-23T15:46:26.697Z,24.77
2023-02-23T15:49:03.379Z,20.70
2023-02-23T15:51:37.430Z,16.88
2023-02-23T15:56:47.549Z,17.85
2023-02-23T15:59:24.191Z,14.85
2023-02-23T16:01:56.177Z,12.32
2023-02-23T16:04:32.752Z,17.52
2023-02-23T16:07:18.782Z,14.15
2023-02-23T16:09:53.670Z,13.80
2023-02-23T16:12:26.363Z,15.07
2023-02-23T16:14:58.692Z,16.92
2023-02-23T16:17:30.837Z,16.00
2023-02-23T16:20:17.341Z,12.70
2023-02-23T16:22:47.740Z,15.15
2023-02-23T16:25:18.553Z,16.20
2023-02-23T16:27:48.628Z,17.02
2023-02-23T16:30:23.573Z,15.43
2023-02-23T16:33:08.023Z,16.65
2023-02-23T16:38:14.862Z,12.95
2023-02-23T16:40:44.908Z,12.40
2023-02-23T16:43:13.813Z,12.55
2023-02-23T16:45:44.370Z,12.13
2023-02-23T16:48:18.157Z,16.65
2023-02-23T16:50:48.771Z,11.65
2023-02-23T16:53:17.220Z,11.70
2023-02-23T16:55:53.225Z,11.40
2023-02-23T16:58:25.643Z,11.95
2023-02-23T17:00:56.338Z,13.73
2023-02-23T17:03:27.196Z,13.23
2023-02-23T17:05:58.066Z,13.32
2023-02-23T17:08:28.991Z,12.77
2023-02-23T17:10:58.737Z,11.50
2023-02-23T17:13:29.363Z,12.57
2023-02-23T17:16:02.124Z,12.07
2023-02-23T17:18:34.322Z,13.45
2023-02-23T17:21:10.073Z,13.60
2023-02-23T17:23:42.838Z,13.95
2023-02-23T17:26:13.558Z,13.80
2023-02-23T17:28:43.378Z,14.93
2023-02-23T17:31:12.580Z,12.52
2023-02-23T17:33:42.801Z,14.23
2023-02-23T17:36:17.323Z,14.18
2023-02-23T17:38:46.855Z,11.23
2023-02-23T17:41:19.285Z,13.02
2023-02-23T17:43:48.544Z,10.65
2023-02-23T17:46:17.742Z,14.73
2023-02-23T17:48:48.861Z,10.70
2023-02-23T17:51:22.783Z,13.70
2023-02-23T17:53:52.692Z,15.90
2023-02-23T17:56:24.387Z,12.90
2023-02-23T17:58:54.360Z,8.65
2023-02-23T18:01:24.627Z,10.40
2023-02-23T18:03:53.418Z,11.68
2023-02-23T18:06:23.752Z,14.88
2023-02-23T18:08:52.427Z,13.57
2023-02-23T18:11:21.029Z,11.10
2023-02-23T18:13:51.408Z,19.55
2023-02-23T18:16:23.474Z,11.43
2023-02-23T18:18:53.008Z,14.60
2023-02-23T18:21:24.589Z,19.48
2023-02-23T18:23:54.180Z,16.02
2023-02-23T18:26:25.623Z,16.02
2023-02-23T18:28:57.485Z,15.18
2023-02-23T18:31:29.650Z,13.45
2023-02-23T18:34:02.545Z,18.55
2023-02-23T18:36:35.714Z,13.73
2023-02-23T18:39:06.937Z,11.63
2023-02-23T18:41:35.977Z,14.30
2023-02-23T18:44:08.755Z,14.73
2023-02-23T18:46:38.499Z,14.48
2023-02-23T18:49:08.080Z,11.85
2023-02-23T18:51:38.655Z,11.82
2023-02-23T18:54:11.691Z,15.43
2023-02-23T18:56:42.346Z,13.20
2023-02-23T18:59:12.570Z,12.63
2023-02-23T19:01:43.520Z,13.65
2023-02-23T19:04:13.834Z,13.80
2023-02-23T19:06:47.290Z,13.85
2023-02-23T19:09:22.101Z,14.32
2023-02-23T19:11:51.478Z,14.02
2023-02-23T19:14:32.861Z,15.60
2023-02-23T19:17:11.221Z,12.10
2023-02-23T19:19:40.480Z,13.55
2023-02-23T19:22:11.521Z,10.30
2023-02-23T19:24:41.842Z,12.48
2023-02-23T19:27:12.268Z,12.57
2023-02-23T19:29:43.056Z,16.95
2023-02-23T19:32:13.009Z,13.43
2023-02-23T19:34:42.371Z,14.27
2023-02-23T19:37:12.898Z,18.45
2023-02-23T19:39:42.710Z,19.88
2023-02-23T19:42:12.723Z,19.90
2023-02-23T19:44:42.432Z,22.73
2023-02-23T19:47:12.675Z,18.08
2023-02-23T19:49:43.601Z,19.05
2023-02-23T19:52:14.434Z,22.27
2023-02-23T19:54:44.876Z,28.73
2023-02-23T19:57:13.507Z,18.00
2023-02-23T19:59:42.564Z,18.75
2023-02-23T20:02:12.624Z,20.13
2023-02-23T20:04:41.738Z,20.13
2023-02-23T20:07:14.748Z,20.67
2023-02-23T20:09:45.441Z,17.77
2023-02-23T20:12:14.898Z,19.00
2023-02-23T20:14:45.873Z,17.48
2023-02-23T20:17:15.242Z,18.77
2023-02-23T20:19:44.136Z,18.10
2023-02-23T20:22:16.632Z,16.77
2023-02-23T20:24:45.421Z,16.02
2023-02-23T20:27:14.397Z,15.45
2023-02-23T20:29:44.414Z,19.58
2023-02-23T20:32:13.759Z,20.80
2023-02-23T20:34:43.137Z,18.23
2023-02-23T20:37:12.396Z,18.23
2023-02-23T20:39:42.470Z,22.73
2023-02-23T20:42:12.070Z,16.23
2023-02-23T20:44:40.568Z,18.95
2023-02-23T20:47:10.392Z,17.48
2023-02-23T20:49:42.039Z,17.88
2023-02-23T20:52:12.482Z,17.55
2023-02-23T20:54:44.695Z,16.08
2023-02-23T20:57:14.350Z,20.05
2023-02-23T20:59:43.561Z,16.08
2023-02-23T21:02:14.184Z,18.73
2023-02-23T21:04:44.344Z,23.05
2023-02-23T21:07:13.809Z,17.83
2023-02-23T21:09:46.005Z,15.93
2023-02-23T21:12:16.845Z,18.48
2023-02-23T21:14:45.515Z,18.58
2023-02-23T21:17:14.315Z,14.13
2023-02-23T21:19:43.265Z,17.50
2023-02-23T21:22:16.646Z,22.40
2023-02-23T21:24:49.003Z,16.00
2023-02-23T21:27:18.083Z,19.70
2023-02-23T21:29:47.495Z,17.30
2023-02-23T21:32:17.143Z,20.23
2023-02-23T21:34:46.208Z,18.38
2023-02-23T21:37:16.454Z,24.17
2023-02-23T21:39:48.395Z,16.88
2023-02-23T21:42:23.905Z,19.48
2023-02-23T21:44:53.345Z,19.98
2023-02-23T21:47:22.288Z,22.38
2023-02-23T21:49:51.267Z,20.75
2023-02-23T21:52:20.084Z,23.85
2023-02-23T21:54:52.627Z,18.90
2023-02-23T21:57:25.596Z,20.88
2023-02-23T21:59:55.349Z,27.10
2023-02-23T22:02:24.569Z,21.35
2023-02-23T22:05:08.021Z,23.92
2023-02-23T22:07:38.889Z,24.30
2023-02-23T22:10:12.495Z,21.30
2023-02-23T22:12:42.027Z,16.45
2023-02-23T22:15:11.828Z,14.93
2023-02-23T22:17:40.617Z,17.88
2023-02-23T22:20:11.557Z,15.50
2023-02-23T22:22:41.063Z,12.48
2023-02-23T22:25:13.064Z,21.02
2023-02-23T22:27:44.021Z,12.60
2023-02-23T22:30:14.172Z,15.23
2023-02-23T22:32:43.438Z,19.38
2023-02-23T22:35:13.006Z,17.77
2023-02-23T22:37:43.060Z,24.10
2023-02-23T22:40:15.816Z,19.08
2023-02-23T22:42:48.772Z,18.15
2023-02-23T22:45:19.306Z,18.45
2023-02-23T22:47:49.050Z,17.50
2023-02-23T22:50:20.063Z,18.90
2023-02-23T22:52:49.112Z,19.92
2023-02-23T22:55:22.041Z,20.90
2023-02-23T22:57:51.688Z,23.08
2023-02-23T23:00:21.218Z,21.15
2023-02-23T23:02:49.763Z,16.58
2023-02-23T23:05:20.028Z,15.90
2023-02-23T23:07:49.411Z,17.15
2023-02-23T23:10:21.516Z,18.20
2023-02-23T23:12:50.508Z,18.30
2023-02-23T23:15:23.006Z,20.27
2023-02-23T23:17:52.370Z,18.17
2023-02-23T23:20:26.244Z,16.52
2023-02-23T23:22:57.841Z,17.27
2023-02-23T23:25:30.582Z,19.60
2023-02-23T23:27:59.696Z,21.23
2023-02-23T23:30:29.612Z,21.52
2023-02-23T23:32:59.124Z,19.75
2023-02-23T23:35:29.889Z,16.63
2023-02-23T23:38:02.364Z,16.67
2023-02-23T23:40:35.938Z,17.60
2023-02-23T23:43:07.971Z,18.27
2023-02-23T23:45:40.993Z,20.73
2023-02-23T23:48:10.212Z,23.10
2023-02-23T23:50:40.373Z,20.10
2023-02-23T23:53:11.113Z,20.38
2023-02-23T23:55:41.649Z,23.52
2023-02-23T23:58:13.091Z,19.42
